Amado Nervo National Airport
MMEP : now visible

Airfield :











YOU CAN JOIN US ON...

 
LOGIN :

Register | Disclaimer

   EN    FR    IT 

 









Legend :    VFR   Marginal VFR   IFR   Intensive IFR   Very Intensive IFR
Visi :
Ceiling :
>= 8 km
>= 3000ft
5 to 8 km
1000 to 3000 ft
1500m to 5 km
500 to 1000 ft
800 to 1500m
200 to 500 ft
< 800m
< 200 ft
Symbols :   Thunderstorms  Fog  Heavy snow  Heavy precipitations  Wind > 20 kt






- Airport Elevation : 3020 ft
- IATA code : TPQ


MMEP - Amado Nervo National

CURRENT METAR :
  • 112053Z 24006KT 12SM BKN250 28/13 A3005 RMK SLP169 57018 902 8/008

EXPIRED METARs :
  • 111946Z 11005KT 12SM FEW250 28/14 A3006 RMK 8/001
  • 111847Z 11007KT 12SM FEW250 27/12 A3009 RMK 8/001

TAF TAF MMEP
Valid from the 11 at 18:00 until the 12 at 18:00 UTC


111628Z 1118/1218 10010KT P6SM SKC
BECMG 1201/1202 00000KT
FM121600 16010KT P6SM SKC



MET'MAP, your aeronautical weather chart ! - Copyright ORBIFLY December 2007 - Disclaimer

ORBIFLY MET'MAP TEAM :

Programming & Development : Alexandra Zaïnal
Concept & original design : Baudouin d'Aumeries
Assistance for programming : Marc-Olivier Méhu
Technical & hardware support : Manuel Goepfert

Contact : metmap@orbifly.com




SOURCES & CREDITS :

   NOAA       Earth
Advisory